Terminal Aerodrome Forecast
Issued by NWS

Home | Current Version | Previous Version | Text Only | Print | Product List | Glossary Off
Versions: 1 2 3 4 5 6 7 8 9 10 11 12 13 14 15 16 17 18 19 20 21 22 23 24 25 26 27 28 29 30 31 32 33 34 35

000
FTUS43 KGRB 291750 AAA
TAFRHI
TAF AMD
KRHI 291750Z 2918/3018 26006KT P6SM VCSH SCT035 BKN080
      TEMPO 2920/2924 3SM TSRA BR BKN025CB
     FM300600 VRB03KT 4SM BR VCSH BKN012 BKN035
     FM300800 VRB03KT 2SM BR VCSH OVC005
      TEMPO 3010/3014 1/2SM FG OVC003
     FM301400 01005KT P6SM SCT005 BKN015
     FM301600 01007KT P6SM SCT015 BKN040=

USA.gov is the U.S. government's official web portal to all federal, state and local government web resources and services.